Time;durP1;ratioP1;P1;durP2;ratioP2;P2;SDS_P1;SDS_P2;PMS_P1;PMS_P2;Temp;Humidity;BMP_temperature;BMP_pressure;BME280_temperature;BME280_humidity;BME280_pressure;Samples;Min_cycle;Max_cycle;Signal;HPM_P1;HPM_P2
2022/01/11 00:00:35;;;;;;;;;;;;;;;0.17;100.00;103070.31;5094198;28;19912;-36
2022/01/11 00:03:02;;;;;;;;;;;;;;;0.21;100.00;103082.44;5093831;28;20009;-36
2022/01/11 00:05:32;;;;;;;;;;;;;;;0.16;100.00;103081.91;5094731;28;19912;-36
2022/01/11 00:07:58;;;;;;;;;;;;;;;0.15;100.00;103082.03;5094322;28;19995;-36
2022/01/11 00:10:31;;;;;;;;;;;;;;;0.14;100.00;103086.47;5094847;28;20301;-36
2022/01/11 00:12:59;;;;;;;;;;;;;;;0.14;100.00;103098.94;5094539;28;19912;-36
2022/01/11 00:15:24;;;;;;;;;;;;;;;0.16;100.00;103097.88;5093890;28;19919;-36
2022/01/11 00:17:50;;;;;;;;;;;;;;;0.19;100.00;103097.63;5094392;28;19912;-35
2022/01/11 00:20:17;;;;;;;;;;;;;;;0.20;100.00;103104.69;5094519;28;20255;-36
2022/01/11 00:24:27;;;;;;;;;;;;;;;0.22;100.00;103100.09;5094377;28;19911;-36
2022/01/11 00:25:36;;;;;;;;;;;;;;;0.27;100.00;103109.56;5093090;28;20363;-35
2022/01/11 00:28:02;;;;;;;;;;;;;;;0.27;100.00;103101.59;5093747;28;19916;-36
2022/01/11 00:30:32;;;;;;;;;;;;;;;0.24;100.00;103103.53;5094344;28;19912;-35
2022/01/11 00:32:59;;;;;;;;;;;;;;;0.23;100.00;103103.59;5093655;28;19980;-35
2022/01/11 00:35:27;;;;;;;;;;;;;;;0.17;100.00;103104.03;5093886;28;19912;-36
2022/01/11 00:37:52;;;;;;;;;;;;;;;0.17;100.00;103099.56;5093608;28;20283;-35
2022/01/11 00:40:18;;;;;;;;;;;;;;;0.19;100.00;103110.09;5093926;28;19912;-35
2022/01/11 00:42:44;;;;;;;;;;;;;;;0.19;100.00;103091.47;5093610;28;19911;-35
2022/01/11 00:45:11;;;;;;;;;;;;;;;0.18;100.00;103090.63;5093875;28;20321;-35
2022/01/11 00:47:36;;;;;;;;;;;;;;;0.15;100.00;103085.53;5093845;28;19923;-35
2022/01/11 00:50:02;;;;;;;;;;;;;;;0.14;100.00;103085.63;5093543;28;19912;-35
2022/01/11 00:52:28;;;;;;;;;;;;;;;0.16;100.00;103089.91;5093483;28;19916;-35
2022/01/11 00:54:55;;;;;;;;;;;;;;;0.17;100.00;103086.28;5094286;28;19916;-35
2022/01/11 00:57:20;;;;;;;;;;;;;;;0.15;100.00;103090.84;5093410;28;19919;-35
2022/01/11 00:59:45;;;;;;;;;;;;;;;0.18;100.00;103098.59;5094070;28;19916;-35
2022/01/11 01:02:11;;;;;;;;;;;;;;;0.16;100.00;103103.19;5094028;28;20007;-35
2022/01/11 01:04:36;;;;;;;;;;;;;;;0.17;100.00;103109.38;5093477;28;19919;-35
2022/01/11 01:07:01;;;;;;;;;;;;;;;0.19;100.00;103108.28;5093344;28;19919;-35
2022/01/11 01:09:34;;;;;;;;;;;;;;;0.19;100.00;103102.97;5094081;28;19957;-36
2022/01/11 01:11:59;;;;;;;;;;;;;;;0.21;100.00;103114.38;5093358;28;19912;-35
2022/01/11 01:14:24;;;;;;;;;;;;;;;0.18;100.00;103098.59;5075060;28;19968;-35
2022/01/11 01:16:49;;;;;;;;;;;;;;;0.18;100.00;103092.44;5093234;28;19999;-35
2022/01/11 01:19:14;;;;;;;;;;;;;;;0.16;100.00;103087.25;5093363;28;19998;-35
2022/01/11 01:21:40;;;;;;;;;;;;;;;0.19;100.00;103091.47;5093292;28;19995;-35
2022/01/11 01:24:06;;;;;;;;;;;;;;;0.14;100.00;103096.28;5093813;28;19920;-36
2022/01/11 01:26:31;;;;;;;;;;;;;;;0.09;100.00;103111.69;5093207;28;19920;-35
2022/01/11 01:28:59;;;;;;;;;;;;;;;0.11;100.00;103112.47;5093772;28;20386;-36
2022/01/11 01:31:24;;;;;;;;;;;;;;;0.12;100.00;103107.03;5093230;28;19911;-36
2022/01/11 01:33:49;;;;;;;;;;;;;;;0.12;100.00;103107.03;5075401;28;19912;-35
2022/01/11 01:36:15;;;;;;;;;;;;;;;0.14;100.00;103113.09;5093065;28;19923;-35
2022/01/11 01:38:40;;;;;;;;;;;;;;;0.16;100.00;103108.53;5096636;28;19939;-35
2022/01/11 01:41:19;;;;;;;;;;;;;;;0.19;100.00;103108.28;5097284;28;19966;-35
2022/01/11 01:43:46;;;;;;;;;;;;;;;0.19;100.00;103112.75;5096964;28;20265;-35
2022/01/11 01:46:12;;;;;;;;;;;;;;;0.17;100.00;103106.72;5096705;28;19919;-35
2022/01/11 01:48:37;;;;;;;;;;;;;;;0.15;100.00;103103.31;5096534;28;19994;-35
2022/01/11 01:51:04;;;;;;;;;;;;;;;0.14;100.00;103105.09;5096563;28;19958;-35
2022/01/11 01:53:30;;;;;;;;;;;;;;;0.15;100.00;103105.97;5077823;28;19944;-35
2022/01/11 01:55:55;;;;;;;;;;;;;;;0.15;100.00;103100.66;5096538;28;19959;-35
2022/01/11 01:58:21;;;;;;;;;;;;;;;0.14;100.00;103107.75;5096716;28;20399;-35
2022/01/11 02:00:52;;;;;;;;;;;;;;;0.14;100.00;103115.75;5096359;28;19972;-35
2022/01/11 02:03:18;;;;;;;;;;;;;;;0.13;100.00;103114.03;5096629;28;19973;-35
2022/01/11 02:05:43;;;;;;;;;;;;;;;0.01;100.00;103112.25;5096080;28;19912;-35
2022/01/11 02:08:10;;;;;;;;;;;;;;;-0.04;100.00;103114.38;5096251;28;19919;-35
2022/01/11 02:10:37;;;;;;;;;;;;;;;-0.07;100.00;103115.44;5096963;28;19939;-35
2022/01/11 02:13:02;;;;;;;;;;;;;;;-0.10;100.00;103118.31;5095817;28;19947;-35
2022/01/11 02:15:28;;;;;;;;;;;;;;;-0.12;100.00;103114.06;5096105;28;19966;-35
2022/01/11 02:17:53;;;;;;;;;;;;;;;-0.11;100.00;103119.25;5095747;28;19958;-35
2022/01/11 02:20:19;;;;;;;;;;;;;;;-0.13;100.00;103130.97;5096052;28;20280;-35
2022/01/11 02:22:44;;;;;;;;;;;;;;;-0.17;100.00;103132.13;5095979;28;20374;-35
2022/01/11 02:25:10;;;;;;;;;;;;;;;-0.16;100.00;103139.16;5095914;28;19919;-35
2022/01/11 02:27:35;;;;;;;;;;;;;;;-0.16;100.00;103128.50;5096945;28;19947;-35
2022/01/11 02:30:00;;;;;;;;;;;;;;;-0.15;100.00;103144.34;5095584;28;19995;-35
2022/01/11 02:32:26;;;;;;;;;;;;;;;-0.17;100.00;103145.44;5096000;28;19923;-36
2022/01/11 02:34:51;;;;;;;;;;;;;;;-0.18;100.00;103152.56;5095670;28;20300;-36
2022/01/11 02:37:16;;;;;;;;;;;;;;;-0.15;100.00;103159.47;5096782;28;20344;-36
2022/01/11 02:39:43;;;;;;;;;;;;;;;-0.10;100.00;103154.69;5095400;28;19958;-35
2022/01/11 02:42:08;;;;;;;;;;;;;;;-0.04;100.00;103157.78;5095876;28;19919;-35
2022/01/11 02:44:34;;;;;;;;;;;;;;;-0.07;100.00;103152.66;5095849;28;19912;-35
2022/01/11 02:46:59;;;;;;;;;;;;;;;-0.09;100.00;103162.56;5095974;28;19919;-35
2022/01/11 02:49:24;;;;;;;;;;;;;;;-0.08;100.00;103158.97;5094798;28;20374;-35
2022/01/11 02:51:50;;;;;;;;;;;;;;;-0.06;100.00;103169.47;5095639;28;19912;-35
2022/01/11 02:54:15;;;;;;;;;;;;;;;-0.06;100.00;103162.34;5095083;28;19922;-35
2022/01/11 02:56:40;;;;;;;;;;;;;;;-0.04;100.00;103165.78;5094946;28;19947;-35
2022/01/11 02:59:05;;;;;;;;;;;;;;;-0.02;100.00;103170.97;5095604;28;20010;-35
2022/01/11 03:01:31;;;;;;;;;;;;;;;-0.01;100.00;103175.34;5094908;28;20418;-35
2022/01/11 03:03:56;;;;;;;;;;;;;;;0.00;100.00;103166.44;5095711;28;19912;-35
2022/01/11 03:06:21;;;;;;;;;;;;;;;0.00;100.00;103158.44;5095667;28;19912;-36
2022/01/11 03:08:47;;;;;;;;;;;;;;;-0.04;100.00;103159.59;5095697;28;19912;-35
2022/01/11 03:11:13;;;;;;;;;;;;;;;-0.08;100.00;103160.75;5095357;28;20292;-35
2022/01/11 03:13:41;;;;;;;;;;;;;;;-0.09;100.00;103167.03;5095857;28;19912;-36
2022/01/11 03:16:07;;;;;;;;;;;;;;;-0.09;100.00;103164.38;5094793;28;19919;-36
2022/01/11 03:18:32;;;;;;;;;;;;;;;-0.06;100.00;103166.81;5094858;28;19912;-35
2022/01/11 03:20:57;;;;;;;;;;;;;;;-0.06;100.00;103170.31;5095671;28;20339;-35
2022/01/11 03:23:23;;;;;;;;;;;;;;;-0.04;100.00;103175.56;5094538;28;19912;-35
2022/01/11 03:25:51;;;;;;;;;;;;;;;-0.03;100.00;103163.97;5094342;28;19927;-35
2022/01/11 03:28:16;;;;;;;;;;;;;;;-0.07;100.00;103159.81;5095253;28;19919;-35
2022/01/11 03:30:41;;;;;;;;;;;;;;;-0.10;100.00;103154.69;5094621;28;19923;-35
2022/01/11 03:33:08;;;;;;;;;;;;;;;-0.09;100.00;103161.72;5094499;28;19912;-35
2022/01/11 03:35:34;;;;;;;;;;;;;;;-0.11;100.00;103163.63;5094449;28;19913;-35
2022/01/11 03:37:59;;;;;;;;;;;;;;;-0.14;100.00;103148.75;5094263;28;19912;-36
2022/01/11 03:40:25;;;;;;;;;;;;;;;-0.10;100.00;103147.59;5094717;28;19919;-36
2022/01/11 03:42:50;;;;;;;;;;;;;;;-0.04;100.00;103157.78;5094367;28;19961;-35
2022/01/11 03:45:16;;;;;;;;;;;;;;;-0.01;100.00;103154.06;5094598;28;19923;-35
2022/01/11 03:47:42;;;;;;;;;;;;;;;-0.02;100.00;103152.34;5094381;28;19912;-35
2022/01/11 03:50:09;;;;;;;;;;;;;;;-0.02;100.00;103158.53;5094596;28;20002;-35
2022/01/11 03:52:35;;;;;;;;;;;;;;;0.01;100.00;103151.31;5094260;28;19916;-35
2022/01/11 03:57:28;;;;;;;;;;;;;;;0.04;100.00;103162.56;5094194;28;19923;-35
2022/01/11 03:59:54;;;;;;;;;;;;;;;0.10;100.00;103158.63;5093362;28;19919;-36
2022/01/11 04:02:19;;;;;;;;;;;;;;;0.08;100.00;103158.75;5093520;28;19915;-36
2022/01/11 04:04:52;;;;;;;;;;;;;;;0.04;100.00;103156.41;5095100;28;19919;-35
2022/01/11 04:07:18;;;;;;;;;;;;;;;0.00;100.00;103177.06;5094331;28;19965;-35
2022/01/11 04:09:43;;;;;;;;;;;;;;;-0.01;100.00;103168.19;5093973;28;19912;-36
2022/01/11 04:12:09;;;;;;;;;;;;;;;0.00;100.00;103166.44;5093637;28;19918;-35
2022/01/11 04:14:34;;;;;;;;;;;;;;;-0.04;100.00;103162.25;5094641;28;19919;-35
2022/01/11 04:16:59;;;;;;;;;;;;;;;-0.05;100.00;103172.06;5093872;28;20287;-35
2022/01/11 04:19:24;;;;;;;;;;;;;;;-0.08;100.00;103168.75;5094705;28;19912;-35
2022/01/11 04:21:49;;;;;;;;;;;;;;;-0.07;100.00;103171.28;5093727;28;20003;-35
2022/01/11 04:24:15;;;;;;;;;;;;;;;-0.07;100.00;103167.78;5094142;28;19916;-35
2022/01/11 04:26:40;;;;;;;;;;;;;;;-0.09;100.00;103173.22;5093881;28;20371;-35
2022/01/11 04:29:05;;;;;;;;;;;;;;;-0.10;100.00;103182.16;5094516;28;20370;-35
2022/01/11 04:31:30;;;;;;;;;;;;;;;-0.09;100.00;103177.69;5093734;28;19919;-35
2022/01/11 04:33:56;;;;;;;;;;;;;;;-0.07;100.00;103178.41;5093983;28;19919;-35
2022/01/11 04:36:21;;;;;;;;;;;;;;;-0.09;100.00;103172.38;5093702;28;20225;-35
2022/01/11 04:38:46;;;;;;;;;;;;;;;-0.08;100.00;103190.03;5093907;28;19912;-35
2022/01/11 04:41:11;;;;;;;;;;;;;;;-0.11;100.00;103192.88;5093975;28;19912;-35
2022/01/11 04:43:37;;;;;;;;;;;;;;;-0.11;100.00;103187.56;5093312;28;19957;-35
2022/01/11 04:46:02;;;;;;;;;;;;;;;-0.09;100.00;103191.84;5093634;28;19957;-36
2022/01/11 04:48:32;;;;;;;;;;;;;;;-0.10;100.00;103186.59;5093766;28;19916;-35
2022/01/11 04:50:57;;;;;;;;;;;;;;;-0.09;100.00;103185.66;5093487;28;19912;-35
2022/01/11 04:53:22;;;;;;;;;;;;;;;-0.07;100.00;103179.28;5093520;28;20315;-35
2022/01/11 04:55:47;;;;;;;;;;;;;;;-0.09;100.00;103183.00;5093736;28;19919;-35
2022/01/11 04:58:13;;;;;;;;;;;;;;;-0.09;100.00;103178.53;5093999;28;19978;-35
2022/01/11 05:00:38;;;;;;;;;;;;;;;-0.07;100.00;103179.28;5093426;28;19919;-35
2022/01/11 05:03:03;;;;;;;;;;;;;;;-0.07;100.00;103178.41;5093376;28;19919;-35
2022/01/11 05:05:29;;;;;;;;;;;;;;;-0.14;100.00;103179.81;5093637;28;19919;-35
2022/01/11 05:07:55;;;;;;;;;;;;;;;-0.16;100.00;103181.69;5093280;28;19912;-35
2022/01/11 05:10:20;;;;;;;;;;;;;;;-0.19;100.00;103181.94;5094119;28;19920;-35
2022/01/11 05:12:46;;;;;;;;;;;;;;;-0.19;100.00;103172.13;5096024;28;19973;-35
2022/01/11 05:15:11;;;;;;;;;;;;;;;-0.19;100.00;103172.13;5097809;28;19918;-35
2022/01/11 05:17:37;;;;;;;;;;;;;;;-0.21;100.00;103173.19;5097160;28;19916;-35
2022/01/11 05:20:03;;;;;;;;;;;;;;;-0.22;100.00;103176.81;5097211;28;20404;-35
2022/01/11 05:22:28;;;;;;;;;;;;;;;-0.23;100.00;103169.78;5096951;28;19912;-35
2022/01/11 05:24:54;;;;;;;;;;;;;;;-0.21;100.00;103173.19;5097110;28;19912;-36
2022/01/11 05:27:19;;;;;;;;;;;;;;;-0.21;100.00;103175.84;5097272;28;19916;-35
2022/01/11 05:29:44;;;;;;;;;;;;;;;-0.24;100.00;103173.38;5097066;28;19957;-36
2022/01/11 05:32:09;;;;;;;;;;;;;;;-0.34;100.00;103165.16;5096902;28;19935;-36
2022/01/11 05:34:34;;;;;;;;;;;;;;;-0.37;100.00;103173.38;5096892;28;20407;-35
2022/01/11 05:37:00;;;;;;;;;;;;;;;-0.38;100.00;103177.84;5096897;28;20359;-35
2022/01/11 05:39:25;;;;;;;;;;;;;;;-0.38;100.00;103177.84;5097413;28;20298;-35
2022/01/11 05:41:50;;;;;;;;;;;;;;;-0.38;100.00;103184.97;5096823;28;20237;-35
2022/01/11 05:44:16;;;;;;;;;;;;;;;-0.37;100.00;103178.69;5096758;28;20061;-35
2022/01/11 05:46:41;;;;;;;;;;;;;;;-0.36;100.00;103181.22;5096633;28;19912;-35
2022/01/11 05:49:06;;;;;;;;;;;;;;;-0.39;100.00;103173.47;5096945;28;19919;-35
2022/01/11 05:51:31;;;;;;;;;;;;;;;-0.41;100.00;103180.69;5096182;28;19973;-35
2022/01/11 05:53:57;;;;;;;;;;;;;;;-0.42;100.00;103186.97;5096749;28;19919;-35
2022/01/11 05:56:22;;;;;;;;;;;;;;;-0.41;100.00;103190.47;5096537;28;20375;-35
2022/01/11 05:58:48;;;;;;;;;;;;;;;-0.43;100.00;103190.59;5096483;28;19912;-35
2022/01/11 06:01:14;;;;;;;;;;;;;;;-0.43;100.00;103193.25;5096462;28;20295;-36
2022/01/11 06:03:39;;;;;;;;;;;;;;;-0.41;100.00;103198.44;5079063;28;20371;-35
2022/01/11 06:06:04;;;;;;;;;;;;;;;-0.43;100.00;103208.34;5097183;28;19912;-35
2022/01/11 06:08:30;;;;;;;;;;;;;;;-0.43;100.00;103211.84;5078031;28;20327;-35
2022/01/11 06:10:57;;;;;;;;;;;;;;;-0.47;100.00;103207.69;5097109;28;19939;-36
2022/01/11 06:13:22;;;;;;;;;;;;;;;-0.47;100.00;103204.19;5096144;28;19912;-35
2022/01/11 06:15:47;;;;;;;;;;;;;;;-0.49;100.00;103228.19;5096388;28;19923;-35
2022/01/11 06:18:13;;;;;;;;;;;;;;;-0.50;100.00;103229.13;5096098;28;19912;-36
2022/01/11 06:20:38;;;;;;;;;;;;;;;-0.47;100.00;103228.94;5095819;28;20003;-35
2022/01/11 06:23:03;;;;;;;;;;;;;;;-0.46;100.00;103232.47;5095008;28;20015;-35
2022/01/11 06:25:28;;;;;;;;;;;;;;;-0.47;100.00;103244.91;5096216;28;20002;-36
2022/01/11 06:27:54;;;;;;;;;;;;;;;-0.50;100.00;103242.44;5077598;28;19923;-36
2022/01/11 06:30:20;;;;;;;;;;;;;;;-0.50;100.00;103244.25;5095935;28;20010;-37
2022/01/11 06:32:45;;;;;;;;;;;;;;;-0.48;100.00;103237.88;5095501;28;19923;-36
2022/01/11 06:35:12;;;;;;;;;;;;;;;-0.47;100.00;103241.38;5095644;28;19912;-35
2022/01/11 06:37:37;;;;;;;;;;;;;;;-0.46;100.00;103243.09;5095920;28;19912;-35
2022/01/11 06:40:03;;;;;;;;;;;;;;;-0.47;100.00;103242.25;5095761;28;19919;-36
2022/01/11 06:42:28;;;;;;;;;;;;;;;-0.49;100.00;103243.28;5096135;28;19912;-36
2022/01/11 06:44:54;;;;;;;;;;;;;;;-0.53;100.00;103248.81;5095368;28;20394;-36
2022/01/11 06:47:19;;;;;;;;;;;;;;;-0.54;100.00;103247.13;5095524;28;19912;-36
2022/01/11 06:49:44;;;;;;;;;;;;;;;-0.54;100.00;103252.44;5095218;28;20333;-35
2022/01/11 06:52:09;;;;;;;;;;;;;;;-0.54;100.00;103262.19;5095436;28;19958;-35
2022/01/11 06:54:35;;;;;;;;;;;;;;;-0.58;100.00;103256.22;5095058;28;19916;-35
2022/01/11 06:57:00;;;;;;;;;;;;;;;-0.61;100.00;103253.75;5095297;28;19916;-35
2022/01/11 06:59:25;;;;;;;;;;;;;;;-0.66;100.00;103253.22;5095085;28;20351;-35
2022/01/11 07:01:50;;;;;;;;;;;;;;;-0.65;100.00;103256.72;5095193;28;19918;-35
2022/01/11 07:04:15;;;;;;;;;;;;;;;-0.70;100.00;103253.50;5095483;28;19972;-35
2022/01/11 07:06:41;;;;;;;;;;;;;;;-0.73;100.00;103254.56;5095287;28;19956;-35
2022/01/11 07:09:06;;;;;;;;;;;;;;;-0.74;100.00;103257.31;5094698;28;19912;-35
2022/01/11 07:11:31;;;;;;;;;;;;;;;-0.76;100.00;103254.75;5094705;28;19912;-35
2022/01/11 07:13:56;;;;;;;;;;;;;;;-0.71;100.00;103262.44;5095865;28;19919;-35
2022/01/11 07:16:22;;;;;;;;;;;;;;;-0.74;100.00;103267.94;5095106;28;19912;-35
2022/01/11 07:18:47;;;;;;;;;;;;;;;-0.74;100.00;103273.25;5094691;28;20284;-35
2022/01/11 07:21:12;;;;;;;;;;;;;;;-0.79;100.00;103282.34;5095419;28;19919;-35
2022/01/11 07:23:38;;;;;;;;;;;;;;;-0.80;100.00;103278.00;5094837;28;19912;-35
2022/01/11 07:26:03;;;;;;;;;;;;;;;-0.83;100.00;103272.91;5094438;28;19912;-35
2022/01/11 07:28:31;;;;;;;;;;;;;;;-0.83;100.00;103283.53;5095055;28;19916;-35
2022/01/11 07:30:56;;;;;;;;;;;;;;;-0.79;100.00;103284.16;5094411;28;19923;-35
2022/01/11 07:33:21;;;;;;;;;;;;;;;-0.78;100.00;103283.25;5095185;28;20407;-35
2022/01/11 07:35:47;;;;;;;;;;;;;;;-0.75;100.00;103291.00;5094631;28;19912;-35
2022/01/11 07:38:12;;;;;;;;;;;;;;;-0.76;100.00;103296.41;5094549;28;20276;-35
2022/01/11 07:40:37;;;;;;;;;;;;;;;-0.76;100.00;103297.25;5076682;28;19943;-35
2022/01/11 07:43:02;;;;;;;;;;;;;;;-0.78;100.00;103291.22;5094702;28;19916;-35
2022/01/11 07:45:28;;;;;;;;;;;;;;;-0.79;100.00;103303.59;5095067;28;19912;-35
2022/01/11 07:47:53;;;;;;;;;;;;;;;-0.79;100.00;103303.59;5094940;28;19912;-35
2022/01/11 07:50:18;;;;;;;;;;;;;;;-0.79;100.00;103300.94;5094699;28;20407;-35
2022/01/11 07:52:44;;;;;;;;;;;;;;;-0.81;100.00;103304.66;5094034;28;19912;-35
2022/01/11 07:55:09;;;;;;;;;;;;;;;-0.82;100.00;103306.47;5094145;28;19912;-35
2022/01/11 07:57:34;;;;;;;;;;;;;;;-0.79;100.00;103308.06;5093951;28;19912;-35
2022/01/11 07:59:59;;;;;;;;;;;;;;;-0.87;100.00;103311.22;5094814;28;19912;-35
2022/01/11 08:02:25;;;;;;;;;;;;;;;-0.85;100.00;103306.66;5094448;28;19928;-35
2022/01/11 08:04:52;;;;;;;;;;;;;;;-0.83;100.00;103304.78;5094957;28;19912;-35
2022/01/11 08:07:17;;;;;;;;;;;;;;;-0.79;100.00;103303.59;5094464;28;19912;-35
2022/01/11 08:09:42;;;;;;;;;;;;;;;-0.73;100.00;103309.47;5094060;28;20256;-35
2022/01/11 08:12:07;;;;;;;;;;;;;;;-0.74;100.00;103302.47;5094577;28;19912;-35
2022/01/11 08:14:33;;;;;;;;;;;;;;;-0.69;100.00;103305.69;5094358;28;20259;-35
2022/01/11 08:16:58;;;;;;;;;;;;;;;-0.65;100.00;103309.88;5093917;28;20363;-36
2022/01/11 08:19:25;;;;;;;;;;;;;;;-0.62;100.00;103310.53;5094128;28;19912;-35
2022/01/11 08:21:56;;;;;;;;;;;;;;;-0.58;100.00;103314.72;5094642;28;20320;-35
2022/01/11 08:24:23;;;;;;;;;;;;;;;-0.52;100.00;103318.78;5094112;28;20319;-35
2022/01/11 08:26:48;;;;;;;;;;;;;;;-0.45;100.00;103309.44;5093709;28;19958;-35
2022/01/11 08:29:14;;;;;;;;;;;;;;;-0.41;100.00;103308.28;5094139;28;19916;-35
2022/01/11 08:31:39;;;;;;;;;;;;;;;-0.35;100.00;103310.53;5094220;28;19912;-35
2022/01/11 08:34:11;;;;;;;;;;;;;;;-0.28;100.00;103317.19;5094423;28;19993;-35
2022/01/11 08:36:36;;;;;;;;;;;;;;;-0.20;100.00;103313.16;5094034;28;20283;-35
2022/01/11 08:39:02;;;;;;;;;;;;;;;-0.15;100.00;103311.06;5093726;28;19912;-36
2022/01/11 08:41:27;;;;;;;;;;;;;;;-0.07;100.00;103311.41;5093363;28;20372;-35
2022/01/11 08:43:52;;;;;;;;;;;;;;;-0.03;100.00;103315.59;5093678;28;20010;-35
2022/01/11 08:46:18;;;;;;;;;;;;;;;-0.04;100.00;103311.22;5094059;28;20318;-35
2022/01/11 08:48:43;;;;;;;;;;;;;;;0.01;100.00;103310.94;5098026;28;20007;-35
2022/01/11 08:51:08;;;;;;;;;;;;;;;0.06;100.00;103322.13;5097965;28;19911;-35
2022/01/11 08:53:33;;;;;;;;;;;;;;;0.10;100.00;103329.78;5097990;28;20010;-35
2022/01/11 08:55:59;;;;;;;;;;;;;;;0.17;100.00;103320.44;5097978;28;19970;-35
2022/01/11 08:58:24;;;;;;;;;;;;;;;0.24;100.00;103324.41;5097656;28;20452;-35
2022/01/11 09:00:49;;;;;;;;;;;;;;;0.28;100.00;103321.53;5097626;28;20295;-35
2022/01/11 09:03:15;;;;;;;;;;;;;;;0.35;100.00;103325.50;5097528;28;19915;-35
2022/01/11 09:05:40;;;;;;;;;;;;;;;0.40;100.00;103315.38;5098221;28;19912;-35
2022/01/11 09:08:06;;;;;;;;;;;;;;;0.46;100.00;103323.78;5097239;28;20335;-35
2022/01/11 09:10:31;;;;;;;;;;;;;;;0.56;100.00;103323.16;5097570;28;20280;-35
2022/01/11 09:12:57;;;;;;;;;;;;;;;0.61;99.88;103327.22;5097264;28;20038;-35
2022/01/11 09:15:22;;;;;;;;;;;;;;;0.69;100.00;103332.03;5097162;28;20313;-35
2022/01/11 09:17:47;;;;;;;;;;;;;;;0.75;100.00;103329.78;5096939;28;19919;-35
2022/01/11 09:20:14;;;;;;;;;;;;;;;0.80;99.84;103321.47;5097475;28;19916;-35
2022/01/11 09:22:39;;;;;;;;;;;;;;;0.83;99.61;103321.28;5097093;28;19911;-35
2022/01/11 09:25:06;;;;;;;;;;;;;;;0.84;99.84;103325.66;5097776;28;20376;-35
2022/01/11 09:27:31;;;;;;;;;;;;;;;0.88;99.65;103331.59;5096737;28;19920;-35
2022/01/11 09:29:56;;;;;;;;;;;;;;;0.92;99.46;103335.75;5097281;28;19919;-35
2022/01/11 09:32:22;;;;;;;;;;;;;;;0.96;99.25;103332.75;5096554;28;19960;-35
2022/01/11 09:34:47;;;;;;;;;;;;;;;1.00;99.22;103339.59;5097022;28;19919;-35
2022/01/11 09:37:13;;;;;;;;;;;;;;;1.08;99.26;103331.06;5096896;28;20034;-35
2022/01/11 09:39:39;;;;;;;;;;;;;;;1.14;99.32;103341.28;5097373;28;19912;-35
2022/01/11 09:42:05;;;;;;;;;;;;;;;1.19;99.29;103346.28;5096419;28;19912;-35
2022/01/11 09:44:32;;;;;;;;;;;;;;;1.25;99.26;103343.19;5096975;28;20386;-35
2022/01/11 09:46:58;;;;;;;;;;;;;;;1.23;98.74;103348.63;5096396;28;20395;-35
2022/01/11 09:49:23;;;;;;;;;;;;;;;1.23;98.91;103348.63;5097464;28;19928;-35
2022/01/11 09:51:48;;;;;;;;;;;;;;;1.24;98.87;103353.00;5096607;28;19912;-35
2022/01/11 09:54:14;;;;;;;;;;;;;;;1.28;98.99;103358.97;5096440;28;20006;-35
2022/01/11 09:56:39;;;;;;;;;;;;;;;1.40;99.11;103357.25;5096528;28;19918;-35
2022/01/11 09:59:07;;;;;;;;;;;;;;;1.44;98.79;103362.25;5096709;28;19916;-35
2022/01/11 10:01:35;;;;;;;;;;;;;;;1.40;98.26;103352.75;5096635;28;19912;-35
2022/01/11 10:04:00;;;;;;;;;;;;;;;1.42;98.70;103361.53;5096422;28;19912;-35
2022/01/11 10:06:26;;;;;;;;;;;;;;;1.43;98.56;103363.22;5096506;28;20284;-35
2022/01/11 10:09:06;;;;;;;;;;;;;;;1.46;98.76;103359.47;5097188;28;19916;-36
2022/01/11 10:11:36;;;;;;;;;;;;;;;1.45;98.64;103363.94;5096271;28;19912;-36
2022/01/11 10:14:15;;;;;;;;;;;;;;;1.45;98.94;103357.75;5096596;28;20217;-35
2022/01/11 10:16:40;;;;;;;;;;;;;;;1.47;98.80;103362.03;5096348;28;19919;-35
2022/01/11 10:19:18;;;;;;;;;;;;;;;1.51;98.81;103349.31;5096549;28;19912;-36
2022/01/11 10:21:43;;;;;;;;;;;;;;;1.57;98.85;103353.38;5096002;28;20014;-36
2022/01/11 10:24:32;;;;;;;;;;;;;;;1.57;98.75;103354.22;5095962;28;19948;-36
2022/01/11 10:27:00;;;;;;;;;;;;;;;1.62;98.88;103349.41;5095711;28;20376;-36
2022/01/11 10:29:25;;;;;;;;;;;;;;;1.64;98.71;103346.63;5095736;28;19920;-36
2022/01/11 10:31:51;;;;;;;;;;;;;;;1.64;98.23;103351.97;5095764;28;19912;-36
2022/01/11 10:34:24;;;;;;;;;;;;;;;1.68;98.85;103351.63;5096307;28;19916;-36
2022/01/11 10:36:49;;;;;;;;;;;;;;;1.72;98.51;103357.59;5095952;28;19912;-36
2022/01/11 10:39:25;;;;;;;;;;;;;;;1.74;98.76;103347.66;5095624;28;20398;-36
2022/01/11 10:41:51;;;;;;;;;;;;;;;1.77;98.86;103356.31;5095263;28;19921;-36
2022/01/11 10:44:36;;;;;;;;;;;;;;;1.82;98.79;103363.13;5095555;28;19937;-36
2022/01/11 10:47:02;;;;;;;;;;;;;;;1.85;98.67;103360.22;5095618;28;19923;-36
2022/01/11 10:49:31;;;;;;;;;;;;;;;1.88;98.77;103363.50;5095859;28;19916;-35
2022/01/11 10:52:15;;;;;;;;;;;;;;;1.92;98.89;103361.47;5095797;28;20257;-36
2022/01/11 10:54:43;;;;;;;;;;;;;;;1.94;98.64;103352.38;5094967;28;19912;-35
2022/01/11 10:57:21;;;;;;;;;;;;;;;2.00;98.61;103359.97;5095008;28;20273;-36
2022/01/11 11:00:04;;;;;;;;;;;;;;;2.05;98.49;103349.78;5095246;28;19918;-36
2022/01/11 11:02:29;;;;;;;;;;;;;;;2.06;98.74;103350.66;5095056;28;20269;-36
2022/01/11 11:04:55;;;;;;;;;;;;;;;2.10;99.01;103345.91;5095138;28;19926;-36
2022/01/11 11:07:23;;;;;;;;;;;;;;;2.12;98.74;103344.84;5094695;28;20010;-36
2022/01/11 11:09:52;;;;;;;;;;;;;;;2.15;98.36;103352.63;5094458;28;19919;-35
2022/01/11 11:12:19;;;;;;;;;;;;;;;2.17;98.58;103353.34;5094959;28;19912;-36
2022/01/11 11:14:49;;;;;;;;;;;;;;;2.21;98.54;103357.50;5095075;28;19919;-35
2022/01/11 11:17:30;;;;;;;;;;;;;;;2.24;98.31;103362.59;5094529;28;19980;-36
2022/01/11 11:19:56;;;;;;;;;;;;;;;2.31;98.56;103355.84;5094802;28;19912;-36
2022/01/11 11:22:21;;;;;;;;;;;;;;;2.35;98.59;103366.31;5094774;28;19912;-36
2022/01/11 11:24:47;;;;;;;;;;;;;;;2.39;97.93;103357.94;5076903;28;19923;-35
2022/01/11 11:27:12;;;;;;;;;;;;;;;2.42;96.80;103362.19;5094539;28;19919;-36
2022/01/11 11:29:38;;;;;;;;;;;;;;;2.46;97.14;103348.50;5094694;28;19973;-36
2022/01/11 11:32:04;;;;;;;;;;;;;;;2.51;97.04;103346.31;5095101;28;20275;-36
2022/01/11 11:34:30;;;;;;;;;;;;;;;2.56;95.93;103345.97;5095259;28;19912;-36
2022/01/11 11:36:56;;;;;;;;;;;;;;;2.61;96.52;103335.78;5094473;28;19969;-36
2022/01/11 11:39:22;;;;;;;;;;;;;;;2.68;95.57;103338.81;5094892;28;20304;-35
2022/01/11 11:41:53;;;;;;;;;;;;;;;2.71;93.70;103323.41;5094030;28;19918;-35
2022/01/11 11:44:26;;;;;;;;;;;;;;;2.77;93.82;103330.94;5094332;28;20290;-35
2022/01/11 11:46:54;;;;;;;;;;;;;;;2.86;94.61;103331.22;5094083;28;20313;-35
2022/01/11 11:49:38;;;;;;;;;;;;;;;2.91;94.37;103332.56;5094338;28;19958;-35
2022/01/11 11:52:22;;;;;;;;;;;;;;;2.97;92.32;103334.72;5094176;28;19911;-35
2022/01/11 11:54:58;;;;;;;;;;;;;;;3.07;93.17;103329.50;5094091;28;20010;-35
2022/01/11 11:57:25;;;;;;;;;;;;;;;3.14;92.67;103333.44;5093846;28;19911;-35
2022/01/11 11:59:55;;;;;;;;;;;;;;;3.20;90.95;103340.94;5094842;28;19989;-35
2022/01/11 12:02:30;;;;;;;;;;;;;;;3.26;92.30;103335.09;5093991;28;19912;-35
2022/01/11 12:04:55;;;;;;;;;;;;;;;3.33;91.28;103344.38;5094469;28;19999;-35
2022/01/11 12:07:32;;;;;;;;;;;;;;;3.38;90.30;103341.31;5093563;28;19955;-35
2022/01/11 12:09:59;;;;;;;;;;;;;;;3.45;90.84;103336.31;5093922;28;19912;-35
2022/01/11 12:12:39;;;;;;;;;;;;;;;3.48;91.45;103331.59;5093875;28;19916;-35
2022/01/11 12:15:22;;;;;;;;;;;;;;;3.56;89.96;103338.97;5093887;28;19912;-35
2022/01/11 12:17:59;;;;;;;;;;;;;;;3.62;90.49;103335.81;5093869;28;19948;-35
2022/01/11 12:20:41;;;;;;;;;;;;;;;3.64;89.17;103336.53;5094298;28;19912;-35
2022/01/11 12:23:06;;;;;;;;;;;;;;;3.71;91.61;103339.56;5092998;28;19958;-35
2022/01/11 12:25:42;;;;;;;;;;;;;;;3.77;89.71;103331.03;5094366;28;20310;-36
2022/01/11 12:28:14;;;;;;;;;;;;;;;3.79;89.28;103324.56;5094612;28;20030;-35
2022/01/11 12:30:40;;;;;;;;;;;;;;;3.84;89.36;103321.53;5094415;28;19912;-35
2022/01/11 12:33:08;;;;;;;;;;;;;;;3.85;86.78;103324.06;5093610;28;19916;-35